sensor_id;sensor_type;location;lat;lon;timestamp;P1;durP1;ratioP1;P2;durP2;ratioP2
78648;SDS011;67962;47.310;9.642;2024-01-25T00:02:22;0.40;;;0.40;;
78648;SDS011;67962;47.310;9.642;2024-01-25T00:04:48;0.50;;;0.35;;
78648;SDS011;67962;47.310;9.642;2024-01-25T00:07:14;1.05;;;0.40;;
78648;SDS011;67962;47.310;9.642;2024-01-25T00:09:39;2.08;;;0.40;;
78648;SDS011;67962;47.310;9.642;2024-01-25T00:12:05;0.63;;;0.40;;
78648;SDS011;67962;47.310;9.642;2024-01-25T00:14:31;1.17;;;0.40;;
78648;SDS011;67962;47.310;9.642;2024-01-25T00:16:56;0.30;;;0.30;;
78648;SDS011;67962;47.310;9.642;2024-01-25T00:19:22;1.13;;;0.50;;
78648;SDS011;67962;47.310;9.642;2024-01-25T00:21:48;0.82;;;0.50;;
78648;SDS011;67962;47.310;9.642;2024-01-25T00:24:13;0.47;;;0.40;;
78648;SDS011;67962;47.310;9.642;2024-01-25T00:26:39;0.70;;;0.40;;
78648;SDS011;67962;47.310;9.642;2024-01-25T00:29:05;0.30;;;0.30;;
78648;SDS011;67962;47.310;9.642;2024-01-25T00:31:31;2.30;;;0.43;;
78648;SDS011;67962;47.310;9.642;2024-01-25T00:33:59;1.27;;;0.40;;
78648;SDS011;67962;47.310;9.642;2024-01-25T00:36:27;0.77;;;0.40;;
78648;SDS011;67962;47.310;9.642;2024-01-25T00:38:53;1.02;;;0.30;;
78648;SDS011;67962;47.310;9.642;2024-01-25T00:41:19;0.50;;;0.50;;
78648;SDS011;67962;47.310;9.642;2024-01-25T00:43:45;1.17;;;0.50;;
78648;SDS011;67962;47.310;9.642;2024-01-25T00:46:11;0.57;;;0.50;;
78648;SDS011;67962;47.310;9.642;2024-01-25T00:48:37;0.70;;;0.30;;
78648;SDS011;67962;47.310;9.642;2024-01-25T00:51:06;2.33;;;0.50;;
78648;SDS011;67962;47.310;9.642;2024-01-25T00:53:33;0.70;;;0.40;;
78648;SDS011;67962;47.310;9.642;2024-01-25T00:55:59;1.70;;;0.30;;
78648;SDS011;67962;47.310;9.642;2024-01-25T00:58:25;4.15;;;0.60;;
78648;SDS011;67962;47.310;9.642;2024-01-25T01:00:51;1.60;;;0.40;;
78648;SDS011;67962;47.310;9.642;2024-01-25T01:03:18;0.50;;;0.40;;
78648;SDS011;67962;47.310;9.642;2024-01-25T01:05:44;1.00;;;0.40;;
78648;SDS011;67962;47.310;9.642;2024-01-25T01:08:10;2.25;;;0.40;;
78648;SDS011;67962;47.310;9.642;2024-01-25T01:10:36;1.75;;;0.60;;
78648;SDS011;67962;47.310;9.642;2024-01-25T01:13:02;1.00;;;0.50;;
78648;SDS011;67962;47.310;9.642;2024-01-25T01:15:28;1.17;;;0.50;;
78648;SDS011;67962;47.310;9.642;2024-01-25T01:17:54;1.15;;;0.40;;
78648;SDS011;67962;47.310;9.642;2024-01-25T01:20:19;0.95;;;0.40;;
78648;SDS011;67962;47.310;9.642;2024-01-25T01:22:45;2.40;;;0.50;;
78648;SDS011;67962;47.310;9.642;2024-01-25T01:25:11;0.88;;;0.40;;
78648;SDS011;67962;47.310;9.642;2024-01-25T01:27:36;0.68;;;0.55;;
78648;SDS011;67962;47.310;9.642;2024-01-25T01:30:03;2.05;;;0.47;;
78648;SDS011;67962;47.310;9.642;2024-01-25T01:32:29;0.60;;;0.30;;
78648;SDS011;67962;47.310;9.642;2024-01-25T01:34:54;1.95;;;0.47;;
78648;SDS011;67962;47.310;9.642;2024-01-25T01:37:20;1.23;;;0.50;;
78648;SDS011;67962;47.310;9.642;2024-01-25T01:39:46;3.15;;;0.40;;
78648;SDS011;67962;47.310;9.642;2024-01-25T01:42:11;2.53;;;0.40;;
78648;SDS011;67962;47.310;9.642;2024-01-25T01:44:38;2.33;;;0.52;;
78648;SDS011;67962;47.310;9.642;2024-01-25T01:47:04;1.80;;;0.30;;
78648;SDS011;67962;47.310;9.642;2024-01-25T01:49:30;1.40;;;0.40;;
78648;SDS011;67962;47.310;9.642;2024-01-25T01:51:56;1.20;;;0.30;;
78648;SDS011;67962;47.310;9.642;2024-01-25T01:54:21;1.08;;;0.50;;
78648;SDS011;67962;47.310;9.642;2024-01-25T01:56:47;0.60;;;0.40;;
78648;SDS011;67962;47.310;9.642;2024-01-25T01:59:13;2.63;;;0.40;;
78648;SDS011;67962;47.310;9.642;2024-01-25T02:01:41;0.20;;;0.20;;
78648;SDS011;67962;47.310;9.642;2024-01-25T02:04:06;0.82;;;0.40;;
78648;SDS011;67962;47.310;9.642;2024-01-25T02:06:32;0.50;;;0.32;;
78648;SDS011;67962;47.310;9.642;2024-01-25T02:08:58;0.88;;;0.40;;
78648;SDS011;67962;47.310;9.642;2024-01-25T02:11:25;0.40;;;0.40;;
78648;SDS011;67962;47.310;9.642;2024-01-25T02:13:51;1.00;;;0.70;;
78648;SDS011;67962;47.310;9.642;2024-01-25T02:16:16;0.35;;;0.20;;
78648;SDS011;67962;47.310;9.642;2024-01-25T02:18:43;1.45;;;0.70;;
78648;SDS011;67962;47.310;9.642;2024-01-25T02:21:08;1.30;;;0.28;;
78648;SDS011;67962;47.310;9.642;2024-01-25T02:23:34;0.98;;;0.20;;
78648;SDS011;67962;47.310;9.642;2024-01-25T02:26:00;1.30;;;0.40;;
78648;SDS011;67962;47.310;9.642;2024-01-25T02:28:25;4.60;;;0.40;;
78648;SDS011;67962;47.310;9.642;2024-01-25T02:30:51;2.53;;;0.43;;
78648;SDS011;67962;47.310;9.642;2024-01-25T02:33:17;0.50;;;0.38;;
78648;SDS011;67962;47.310;9.642;2024-01-25T02:35:42;4.60;;;0.30;;
78648;SDS011;67962;47.310;9.642;2024-01-25T02:38:08;0.95;;;0.30;;
78648;SDS011;67962;47.310;9.642;2024-01-25T02:40:33;0.40;;;0.20;;
78648;SDS011;67962;47.310;9.642;2024-01-25T02:42:59;0.65;;;0.45;;
78648;SDS011;67962;47.310;9.642;2024-01-25T02:45:25;2.08;;;0.40;;
78648;SDS011;67962;47.310;9.642;2024-01-25T02:47:50;0.60;;;0.60;;
78648;SDS011;67962;47.310;9.642;2024-01-25T02:50:16;0.30;;;0.30;;
78648;SDS011;67962;47.310;9.642;2024-01-25T02:52:42;0.60;;;0.40;;
78648;SDS011;67962;47.310;9.642;2024-01-25T02:55:08;0.47;;;0.30;;
78648;SDS011;67962;47.310;9.642;2024-01-25T02:57:33;0.47;;;0.30;;
78648;SDS011;67962;47.310;9.642;2024-01-25T02:59:59;0.98;;;0.30;;
78648;SDS011;67962;47.310;9.642;2024-01-25T03:02:25;1.23;;;0.40;;
78648;SDS011;67962;47.310;9.642;2024-01-25T03:04:51;1.30;;;0.52;;
78648;SDS011;67962;47.310;9.642;2024-01-25T03:07:17;0.57;;;0.28;;
78648;SDS011;67962;47.310;9.642;2024-01-25T03:09:43;4.20;;;0.40;;
78648;SDS011;67962;47.310;9.642;2024-01-25T03:12:08;0.30;;;0.30;;
78648;SDS011;67962;47.310;9.642;2024-01-25T03:14:34;0.20;;;0.20;;
78648;SDS011;67962;47.310;9.642;2024-01-25T03:17:00;0.40;;;0.30;;
78648;SDS011;67962;47.310;9.642;2024-01-25T03:19:26;0.40;;;0.40;;
78648;SDS011;67962;47.310;9.642;2024-01-25T03:21:52;0.30;;;0.20;;
78648;SDS011;67962;47.310;9.642;2024-01-25T03:24:19;0.40;;;0.40;;
78648;SDS011;67962;47.310;9.642;2024-01-25T03:26:45;0.95;;;0.50;;
78648;SDS011;67962;47.310;9.642;2024-01-25T03:29:11;0.63;;;0.30;;
78648;SDS011;67962;47.310;9.642;2024-01-25T03:31:36;0.40;;;0.28;;
78648;SDS011;67962;47.310;9.642;2024-01-25T03:34:02;0.40;;;0.40;;
78648;SDS011;67962;47.310;9.642;2024-01-25T03:36:28;0.63;;;0.50;;
78648;SDS011;67962;47.310;9.642;2024-01-25T03:38:54;1.00;;;0.40;;
78648;SDS011;67962;47.310;9.642;2024-01-25T03:41:20;1.38;;;0.50;;
78648;SDS011;67962;47.310;9.642;2024-01-25T03:43:45;3.10;;;0.50;;
78648;SDS011;67962;47.310;9.642;2024-01-25T03:46:11;0.40;;;0.40;;
78648;SDS011;67962;47.310;9.642;2024-01-25T03:48:37;0.60;;;0.30;;
78648;SDS011;67962;47.310;9.642;2024-01-25T03:51:03;0.43;;;0.30;;
78648;SDS011;67962;47.310;9.642;2024-01-25T03:53:29;0.40;;;0.40;;
78648;SDS011;67962;47.310;9.642;2024-01-25T03:55:55;0.30;;;0.30;;
78648;SDS011;67962;47.310;9.642;2024-01-25T03:58:20;0.25;;;0.20;;
78648;SDS011;67962;47.310;9.642;2024-01-25T04:00:46;0.30;;;0.20;;
78648;SDS011;67962;47.310;9.642;2024-01-25T04:03:12;0.30;;;0.30;;
78648;SDS011;67962;47.310;9.642;2024-01-25T04:05:37;0.40;;;0.30;;
78648;SDS011;67962;47.310;9.642;2024-01-25T04:08:04;0.60;;;0.57;;
78648;SDS011;67962;47.310;9.642;2024-01-25T04:10:31;0.30;;;0.30;;
78648;SDS011;67962;47.310;9.642;2024-01-25T04:12:56;0.55;;;0.30;;
78648;SDS011;67962;47.310;9.642;2024-01-25T04:15:22;0.20;;;0.20;;
78648;SDS011;67962;47.310;9.642;2024-01-25T04:17:48;0.30;;;0.30;;
78648;SDS011;67962;47.310;9.642;2024-01-25T04:20:14;0.40;;;0.40;;
78648;SDS011;67962;47.310;9.642;2024-01-25T04:22:40;1.58;;;0.30;;
78648;SDS011;67962;47.310;9.642;2024-01-25T04:25:06;0.40;;;0.30;;
78648;SDS011;67962;47.310;9.642;2024-01-25T04:27:32;0.25;;;0.25;;
78648;SDS011;67962;47.310;9.642;2024-01-25T04:29:58;0.55;;;0.30;;
78648;SDS011;67962;47.310;9.642;2024-01-25T04:32:23;0.28;;;0.28;;
78648;SDS011;67962;47.310;9.642;2024-01-25T04:34:49;0.20;;;0.20;;
78648;SDS011;67962;47.310;9.642;2024-01-25T04:37:15;0.30;;;0.30;;
78648;SDS011;67962;47.310;9.642;2024-01-25T04:39:40;1.05;;;0.47;;
78648;SDS011;67962;47.310;9.642;2024-01-25T04:42:07;0.40;;;0.30;;
78648;SDS011;67962;47.310;9.642;2024-01-25T04:44:33;2.28;;;0.28;;
78648;SDS011;67962;47.310;9.642;2024-01-25T04:46:59;0.20;;;0.20;;
78648;SDS011;67962;47.310;9.642;2024-01-25T04:49:25;0.30;;;0.30;;
78648;SDS011;67962;47.310;9.642;2024-01-25T04:51:51;2.33;;;0.38;;
78648;SDS011;67962;47.310;9.642;2024-01-25T04:54:16;0.55;;;0.28;;
78648;SDS011;67962;47.310;9.642;2024-01-25T04:56:43;0.30;;;0.30;;
78648;SDS011;67962;47.310;9.642;2024-01-25T04:59:09;0.20;;;0.20;;
78648;SDS011;67962;47.310;9.642;2024-01-25T05:01:35;0.50;;;0.40;;
78648;SDS011;67962;47.310;9.642;2024-01-25T05:04:00;0.20;;;0.20;;
78648;SDS011;67962;47.310;9.642;2024-01-25T05:06:26;0.30;;;0.30;;
78648;SDS011;67962;47.310;9.642;2024-01-25T05:08:52;0.68;;;0.20;;
78648;SDS011;67962;47.310;9.642;2024-01-25T05:11:18;0.20;;;0.20;;
78648;SDS011;67962;47.310;9.642;2024-01-25T05:13:43;0.38;;;0.20;;
78648;SDS011;67962;47.310;9.642;2024-01-25T05:16:09;0.35;;;0.35;;
78648;SDS011;67962;47.310;9.642;2024-01-25T05:18:36;0.70;;;0.50;;
78648;SDS011;67962;47.310;9.642;2024-01-25T05:21:01;0.13;;;0.13;;
78648;SDS011;67962;47.310;9.642;2024-01-25T05:23:27;0.30;;;0.30;;
78648;SDS011;67962;47.310;9.642;2024-01-25T05:25:53;0.22;;;0.22;;
78648;SDS011;67962;47.310;9.642;2024-01-25T05:28:18;6.68;;;2.70;;
78648;SDS011;67962;47.310;9.642;2024-01-25T05:30:44;5.95;;;2.45;;
78648;SDS011;67962;47.310;9.642;2024-01-25T05:33:10;0.30;;;0.30;;
78648;SDS011;67962;47.310;9.642;2024-01-25T05:35:35;0.30;;;0.30;;
78648;SDS011;67962;47.310;9.642;2024-01-25T05:38:01;1.23;;;0.57;;
78648;SDS011;67962;47.310;9.642;2024-01-25T05:40:27;0.30;;;0.30;;
78648;SDS011;67962;47.310;9.642;2024-01-25T05:42:53;0.40;;;0.40;;
78648;SDS011;67962;47.310;9.642;2024-01-25T05:45:18;0.32;;;0.32;;
78648;SDS011;67962;47.310;9.642;2024-01-25T05:47:46;0.32;;;0.30;;
78648;SDS011;67962;47.310;9.642;2024-01-25T05:50:12;0.30;;;0.30;;
78648;SDS011;67962;47.310;9.642;2024-01-25T05:52:38;0.30;;;0.30;;
78648;SDS011;67962;47.310;9.642;2024-01-25T05:55:06;0.20;;;0.20;;
78648;SDS011;67962;47.310;9.642;2024-01-25T05:57:34;0.22;;;0.22;;
78648;SDS011;67962;47.310;9.642;2024-01-25T06:00:00;0.50;;;0.30;;
78648;SDS011;67962;47.310;9.642;2024-01-25T06:02:27;0.20;;;0.20;;
78648;SDS011;67962;47.310;9.642;2024-01-25T06:04:52;0.32;;;0.30;;
78648;SDS011;67962;47.310;9.642;2024-01-25T06:07:18;0.40;;;0.40;;
78648;SDS011;67962;47.310;9.642;2024-01-25T06:09:45;0.57;;;0.30;;
78648;SDS011;67962;47.310;9.642;2024-01-25T06:12:10;0.65;;;0.30;;
78648;SDS011;67962;47.310;9.642;2024-01-25T06:14:36;1.05;;;0.30;;
78648;SDS011;67962;47.310;9.642;2024-01-25T06:17:03;0.40;;;0.40;;
78648;SDS011;67962;47.310;9.642;2024-01-25T06:19:28;0.28;;;0.28;;
78648;SDS011;67962;47.310;9.642;2024-01-25T06:21:54;0.93;;;0.47;;
78648;SDS011;67962;47.310;9.642;2024-01-25T06:24:20;2.20;;;0.60;;
78648;SDS011;67962;47.310;9.642;2024-01-25T06:26:45;0.30;;;0.30;;
78648;SDS011;67962;47.310;9.642;2024-01-25T06:29:11;0.40;;;0.20;;
78648;SDS011;67962;47.310;9.642;2024-01-25T06:31:43;0.50;;;0.30;;
78648;SDS011;67962;47.310;9.642;2024-01-25T06:34:09;0.63;;;0.40;;
78648;SDS011;67962;47.310;9.642;2024-01-25T06:36:35;0.95;;;0.30;;
78648;SDS011;67962;47.310;9.642;2024-01-25T06:39:01;0.30;;;0.30;;
78648;SDS011;67962;47.310;9.642;2024-01-25T06:41:26;0.20;;;0.20;;
78648;SDS011;67962;47.310;9.642;2024-01-25T06:43:52;0.25;;;0.25;;
78648;SDS011;67962;47.310;9.642;2024-01-25T06:46:18;0.57;;;0.50;;
78648;SDS011;67962;47.310;9.642;2024-01-25T06:48:43;0.17;;;0.10;;
78648;SDS011;67962;47.310;9.642;2024-01-25T06:51:09;0.32;;;0.20;;
78648;SDS011;67962;47.310;9.642;2024-01-25T06:53:35;0.20;;;0.20;;
78648;SDS011;67962;47.310;9.642;2024-01-25T06:56:00;0.30;;;0.30;;
78648;SDS011;67962;47.310;9.642;2024-01-25T06:58:26;0.30;;;0.30;;
78648;SDS011;67962;47.310;9.642;2024-01-25T07:00:52;0.32;;;0.30;;
78648;SDS011;67962;47.310;9.642;2024-01-25T07:03:18;0.57;;;0.30;;
78648;SDS011;67962;47.310;9.642;2024-01-25T07:05:43;0.45;;;0.40;;
78648;SDS011;67962;47.310;9.642;2024-01-25T07:08:09;0.95;;;0.40;;
78648;SDS011;67962;47.310;9.642;2024-01-25T07:10:41;0.82;;;0.30;;
78648;SDS011;67962;47.310;9.642;2024-01-25T07:13:07;0.22;;;0.22;;
78648;SDS011;67962;47.310;9.642;2024-01-25T07:15:33;0.70;;;0.30;;
78648;SDS011;67962;47.310;9.642;2024-01-25T07:17:59;0.30;;;0.30;;
78648;SDS011;67962;47.310;9.642;2024-01-25T07:20:25;0.38;;;0.30;;
78648;SDS011;67962;47.310;9.642;2024-01-25T07:22:50;0.70;;;0.30;;
78648;SDS011;67962;47.310;9.642;2024-01-25T07:25:16;0.68;;;0.40;;
78648;SDS011;67962;47.310;9.642;2024-01-25T07:27:45;2.70;;;0.50;;
78648;SDS011;67962;47.310;9.642;2024-01-25T07:30:12;0.70;;;0.40;;
78648;SDS011;67962;47.310;9.642;2024-01-25T07:32:38;1.88;;;0.57;;
78648;SDS011;67962;47.310;9.642;2024-01-25T07:35:07;2.55;;;0.50;;
78648;SDS011;67962;47.310;9.642;2024-01-25T07:37:34;0.85;;;0.47;;
78648;SDS011;67962;47.310;9.642;2024-01-25T07:40:00;1.10;;;0.50;;
78648;SDS011;67962;47.310;9.642;2024-01-25T07:42:28;0.98;;;0.40;;
78648;SDS011;67962;47.310;9.642;2024-01-25T07:44:54;0.73;;;0.35;;
78648;SDS011;67962;47.310;9.642;2024-01-25T07:47:19;0.95;;;0.40;;
78648;SDS011;67962;47.310;9.642;2024-01-25T07:49:45;0.85;;;0.50;;
78648;SDS011;67962;47.310;9.642;2024-01-25T07:52:11;1.50;;;0.50;;
78648;SDS011;67962;47.310;9.642;2024-01-25T07:54:36;1.05;;;0.30;;
78648;SDS011;67962;47.310;9.642;2024-01-25T07:57:02;0.30;;;0.30;;
78648;SDS011;67962;47.310;9.642;2024-01-25T07:59:28;2.15;;;0.30;;
78648;SDS011;67962;47.310;9.642;2024-01-25T08:01:53;0.82;;;0.40;;
78648;SDS011;67962;47.310;9.642;2024-01-25T08:04:19;0.95;;;0.40;;
78648;SDS011;67962;47.310;9.642;2024-01-25T08:06:45;1.27;;;0.75;;
78648;SDS011;67962;47.310;9.642;2024-01-25T08:09:10;1.30;;;0.50;;
78648;SDS011;67962;47.310;9.642;2024-01-25T08:11:36;0.30;;;0.30;;
78648;SDS011;67962;47.310;9.642;2024-01-25T08:14:02;0.32;;;0.30;;
78648;SDS011;67962;47.310;9.642;2024-01-25T08:16:28;1.73;;;0.40;;
78648;SDS011;67962;47.310;9.642;2024-01-25T08:18:54;0.68;;;0.47;;
78648;SDS011;67962;47.310;9.642;2024-01-25T08:21:20;0.57;;;0.50;;
78648;SDS011;67962;47.310;9.642;2024-01-25T08:23:46;0.95;;;0.63;;
78648;SDS011;67962;47.310;9.642;2024-01-25T08:26:12;0.73;;;0.40;;
78648;SDS011;67962;47.310;9.642;2024-01-25T08:28:41;0.50;;;0.30;;
78648;SDS011;67962;47.310;9.642;2024-01-25T08:31:09;1.17;;;0.30;;
78648;SDS011;67962;47.310;9.642;2024-01-25T08:33:35;0.73;;;0.20;;
78648;SDS011;67962;47.310;9.642;2024-01-25T08:36:01;0.80;;;0.40;;
78648;SDS011;67962;47.310;9.642;2024-01-25T08:38:27;1.50;;;0.40;;
78648;SDS011;67962;47.310;9.642;2024-01-25T08:40:53;0.30;;;0.30;;
78648;SDS011;67962;47.310;9.642;2024-01-25T08:43:18;0.32;;;0.32;;
78648;SDS011;67962;47.310;9.642;2024-01-25T08:45:45;0.82;;;0.38;;
78648;SDS011;67962;47.310;9.642;2024-01-25T08:48:11;0.30;;;0.30;;
78648;SDS011;67962;47.310;9.642;2024-01-25T08:50:38;0.25;;;0.25;;
78648;SDS011;67962;47.310;9.642;2024-01-25T08:53:04;0.40;;;0.30;;
78648;SDS011;67962;47.310;9.642;2024-01-25T08:55:30;0.30;;;0.30;;
78648;SDS011;67962;47.310;9.642;2024-01-25T08:57:56;0.60;;;0.50;;
78648;SDS011;67962;47.310;9.642;2024-01-25T09:00:21;2.58;;;0.40;;
78648;SDS011;67962;47.310;9.642;2024-01-25T09:02:47;0.80;;;0.35;;
78648;SDS011;67962;47.310;9.642;2024-01-25T09:05:13;1.00;;;0.30;;
78648;SDS011;67962;47.310;9.642;2024-01-25T09:07:39;0.40;;;0.32;;
78648;SDS011;67962;47.310;9.642;2024-01-25T09:10:06;2.05;;;0.40;;
78648;SDS011;67962;47.310;9.642;2024-01-25T09:12:33;0.68;;;0.30;;
78648;SDS011;67962;47.310;9.642;2024-01-25T09:15:00;1.58;;;0.40;;
78648;SDS011;67962;47.310;9.642;2024-01-25T09:17:26;0.77;;;0.47;;
78648;SDS011;67962;47.310;9.642;2024-01-25T09:19:52;1.48;;;0.50;;
78648;SDS011;67962;47.310;9.642;2024-01-25T09:22:18;0.80;;;0.57;;
78648;SDS011;67962;47.310;9.642;2024-01-25T09:24:46;0.40;;;0.40;;
78648;SDS011;67962;47.310;9.642;2024-01-25T09:27:12;0.77;;;0.40;;
78648;SDS011;67962;47.310;9.642;2024-01-25T09:29:39;2.08;;;0.43;;
78648;SDS011;67962;47.310;9.642;2024-01-25T09:32:05;1.45;;;0.50;;
78648;SDS011;67962;47.310;9.642;2024-01-25T09:34:32;0.80;;;0.50;;
78648;SDS011;67962;47.310;9.642;2024-01-25T09:36:58;1.35;;;0.80;;
78648;SDS011;67962;47.310;9.642;2024-01-25T09:39:24;3.15;;;0.90;;
78648;SDS011;67962;47.310;9.642;2024-01-25T09:41:49;1.13;;;0.98;;
78648;SDS011;67962;47.310;9.642;2024-01-25T09:44:15;1.15;;;0.80;;
78648;SDS011;67962;47.310;9.642;2024-01-25T09:46:42;1.35;;;0.70;;
78648;SDS011;67962;47.310;9.642;2024-01-25T09:49:09;0.70;;;0.60;;
78648;SDS011;67962;47.310;9.642;2024-01-25T09:51:41;0.40;;;0.40;;
78648;SDS011;67962;47.310;9.642;2024-01-25T09:54:07;1.63;;;0.90;;
78648;SDS011;67962;47.310;9.642;2024-01-25T09:56:33;2.00;;;1.25;;
78648;SDS011;67962;47.310;9.642;2024-01-25T09:58:59;1.38;;;0.80;;
78648;SDS011;67962;47.310;9.642;2024-01-25T10:01:25;3.70;;;1.17;;
78648;SDS011;67962;47.310;9.642;2024-01-25T10:03:51;4.88;;;1.10;;
78648;SDS011;67962;47.310;9.642;2024-01-25T10:06:17;8.18;;;1.20;;
78648;SDS011;67962;47.310;9.642;2024-01-25T10:08:43;2.00;;;1.00;;
78648;SDS011;67962;47.310;9.642;2024-01-25T10:11:10;5.47;;;1.80;;
78648;SDS011;67962;47.310;9.642;2024-01-25T10:13:46;5.68;;;2.50;;
78648;SDS011;67962;47.310;9.642;2024-01-25T10:16:16;4.50;;;2.03;;
78648;SDS011;67962;47.310;9.642;2024-01-25T10:18:44;3.95;;;1.83;;
78648;SDS011;67962;47.310;9.642;2024-01-25T10:21:12;3.97;;;1.77;;
78648;SDS011;67962;47.310;9.642;2024-01-25T10:23:39;3.92;;;1.60;;
78648;SDS011;67962;47.310;9.642;2024-01-25T10:26:07;3.70;;;1.17;;
78648;SDS011;67962;47.310;9.642;2024-01-25T10:28:33;3.42;;;1.15;;
78648;SDS011;67962;47.310;9.642;2024-01-25T10:30:59;2.28;;;1.10;;
78648;SDS011;67962;47.310;9.642;2024-01-25T10:33:27;2.13;;;1.10;;
78648;SDS011;67962;47.310;9.642;2024-01-25T10:35:57;2.42;;;1.40;;
78648;SDS011;67962;47.310;9.642;2024-01-25T10:38:35;6.07;;;2.40;;
78648;SDS011;67962;47.310;9.642;2024-01-25T10:41:02;7.07;;;3.20;;
78648;SDS011;67962;47.310;9.642;2024-01-25T10:43:29;9.48;;;4.57;;
78648;SDS011;67962;47.310;9.642;2024-01-25T10:45:58;5.95;;;2.72;;
78648;SDS011;67962;47.310;9.642;2024-01-25T10:48:24;8.25;;;3.30;;
78648;SDS011;67962;47.310;9.642;2024-01-25T10:50:51;11.45;;;3.88;;
78648;SDS011;67962;47.310;9.642;2024-01-25T10:53:18;10.80;;;3.72;;
78648;SDS011;67962;47.310;9.642;2024-01-25T10:55:45;6.43;;;2.00;;
78648;SDS011;67962;47.310;9.642;2024-01-25T10:58:12;5.93;;;2.10;;
78648;SDS011;67962;47.310;9.642;2024-01-25T11:00:39;4.80;;;1.90;;
78648;SDS011;67962;47.310;9.642;2024-01-25T11:03:05;4.22;;;2.00;;
78648;SDS011;67962;47.310;9.642;2024-01-25T11:05:31;3.15;;;1.77;;
78648;SDS011;67962;47.310;9.642;2024-01-25T11:07:57;5.38;;;2.15;;
78648;SDS011;67962;47.310;9.642;2024-01-25T11:10:24;6.47;;;2.53;;
78648;SDS011;67962;47.310;9.642;2024-01-25T11:13:00;4.43;;;1.75;;
78648;SDS011;67962;47.310;9.642;2024-01-25T11:15:32;3.72;;;2.17;;
78648;SDS011;67962;47.310;9.642;2024-01-25T11:17:59;4.03;;;1.85;;
78648;SDS011;67962;47.310;9.642;2024-01-25T11:20:27;3.50;;;2.28;;
78648;SDS011;67962;47.310;9.642;2024-01-25T11:23:04;6.15;;;1.98;;
78648;SDS011;67962;47.310;9.642;2024-01-25T11:25:32;3.92;;;2.00;;
78648;SDS011;67962;47.310;9.642;2024-01-25T11:27:59;5.72;;;3.00;;
78648;SDS011;67962;47.310;9.642;2024-01-25T11:30:26;4.43;;;2.42;;
78648;SDS011;67962;47.310;9.642;2024-01-25T11:32:53;5.38;;;2.30;;
78648;SDS011;67962;47.310;9.642;2024-01-25T11:35:19;4.40;;;2.15;;
78648;SDS011;67962;47.310;9.642;2024-01-25T11:37:46;4.13;;;1.70;;
78648;SDS011;67962;47.310;9.642;2024-01-25T11:40:12;4.15;;;2.15;;
78648;SDS011;67962;47.310;9.642;2024-01-25T11:42:41;6.60;;;1.95;;
78648;SDS011;67962;47.310;9.642;2024-01-25T11:45:10;4.88;;;2.03;;
78648;SDS011;67962;47.310;9.642;2024-01-25T11:47:37;2.25;;;1.70;;
78648;SDS011;67962;47.310;9.642;2024-01-25T11:50:03;8.90;;;2.40;;
78648;SDS011;67962;47.310;9.642;2024-01-25T11:52:30;3.65;;;1.73;;
78648;SDS011;67962;47.310;9.642;2024-01-25T11:55:08;3.70;;;1.80;;
78648;SDS011;67962;47.310;9.642;2024-01-25T11:57:38;2.90;;;1.65;;
78648;SDS011;67962;47.310;9.642;2024-01-25T12:00:06;6.28;;;2.05;;
78648;SDS011;67962;47.310;9.642;2024-01-25T12:02:38;4.82;;;1.60;;
78648;SDS011;67962;47.310;9.642;2024-01-25T12:05:05;3.53;;;1.50;;
78648;SDS011;67962;47.310;9.642;2024-01-25T12:07:31;2.78;;;1.80;;
78648;SDS011;67962;47.310;9.642;2024-01-25T12:09:58;3.33;;;1.90;;
78648;SDS011;67962;47.310;9.642;2024-01-25T12:12:28;2.28;;;1.60;;
78648;SDS011;67962;47.310;9.642;2024-01-25T12:15:00;2.88;;;1.80;;
78648;SDS011;67962;47.310;9.642;2024-01-25T12:17:29;2.78;;;1.48;;
78648;SDS011;67962;47.310;9.642;2024-01-25T12:19:56;3.15;;;1.58;;
78648;SDS011;67962;47.310;9.642;2024-01-25T12:22:23;2.75;;;1.60;;
78648;SDS011;67962;47.310;9.642;2024-01-25T12:24:50;2.28;;;1.50;;
78648;SDS011;67962;47.310;9.642;2024-01-25T12:27:22;4.65;;;1.90;;
78648;SDS011;67962;47.310;9.642;2024-01-25T12:29:53;3.25;;;1.80;;
78648;SDS011;67962;47.310;9.642;2024-01-25T12:32:22;1.48;;;1.13;;
78648;SDS011;67962;47.310;9.642;2024-01-25T12:37:20;2.55;;;1.38;;
78648;SDS011;67962;47.310;9.642;2024-01-25T12:39:46;6.90;;;2.30;;
78648;SDS011;67962;47.310;9.642;2024-01-25T12:42:11;4.40;;;1.58;;
78648;SDS011;67962;47.310;9.642;2024-01-25T12:44:38;1.95;;;1.30;;
78648;SDS011;67962;47.310;9.642;2024-01-25T12:47:05;2.30;;;1.15;;
78648;SDS011;67962;47.310;9.642;2024-01-25T12:49:32;1.70;;;1.08;;
78648;SDS011;67962;47.310;9.642;2024-01-25T12:51:58;1.38;;;1.15;;
78648;SDS011;67962;47.310;9.642;2024-01-25T12:54:24;2.30;;;1.60;;
78648;SDS011;67962;47.310;9.642;2024-01-25T12:56:51;1.83;;;1.38;;
78648;SDS011;67962;47.310;9.642;2024-01-25T12:59:17;1.77;;;1.15;;
78648;SDS011;67962;47.310;9.642;2024-01-25T13:01:42;15.80;;;6.10;;
78648;SDS011;67962;47.310;9.642;2024-01-25T13:04:08;3.20;;;1.70;;
78648;SDS011;67962;47.310;9.642;2024-01-25T13:06:34;3.72;;;2.20;;
78648;SDS011;67962;47.310;9.642;2024-01-25T13:08:59;13.27;;;4.63;;
78648;SDS011;67962;47.310;9.642;2024-01-25T13:11:25;3.63;;;2.50;;
78648;SDS011;67962;47.310;9.642;2024-01-25T13:13:51;2.00;;;1.75;;
78648;SDS011;67962;47.310;9.642;2024-01-25T13:16:17;3.13;;;1.30;;
78648;SDS011;67962;47.310;9.642;2024-01-25T13:18:42;2.22;;;1.48;;
78648;SDS011;67962;47.310;9.642;2024-01-25T13:21:08;2.03;;;1.55;;
78648;SDS011;67962;47.310;9.642;2024-01-25T13:23:34;2.60;;;1.65;;
78648;SDS011;67962;47.310;9.642;2024-01-25T13:26:00;2.45;;;1.30;;
78648;SDS011;67962;47.310;9.642;2024-01-25T13:28:26;4.10;;;1.40;;
78648;SDS011;67962;47.310;9.642;2024-01-25T13:30:52;2.35;;;1.40;;
78648;SDS011;67962;47.310;9.642;2024-01-25T13:33:19;1.85;;;1.33;;
78648;SDS011;67962;47.310;9.642;2024-01-25T13:35:44;2.38;;;1.20;;
78648;SDS011;67962;47.310;9.642;2024-01-25T13:38:10;2.90;;;1.65;;
78648;SDS011;67962;47.310;9.642;2024-01-25T13:40:39;2.45;;;1.20;;
78648;SDS011;67962;47.310;9.642;2024-01-25T13:43:05;2.03;;;1.30;;
78648;SDS011;67962;47.310;9.642;2024-01-25T13:45:31;2.40;;;1.42;;
78648;SDS011;67962;47.310;9.642;2024-01-25T13:47:57;2.22;;;1.40;;
78648;SDS011;67962;47.310;9.642;2024-01-25T13:50:22;1.42;;;1.20;;
78648;SDS011;67962;47.310;9.642;2024-01-25T13:52:48;3.15;;;1.52;;
78648;SDS011;67962;47.310;9.642;2024-01-25T13:55:14;2.25;;;1.30;;
78648;SDS011;67962;47.310;9.642;2024-01-25T13:57:39;2.47;;;1.58;;
78648;SDS011;67962;47.310;9.642;2024-01-25T14:00:05;2.80;;;1.30;;
78648;SDS011;67962;47.310;9.642;2024-01-25T14:02:33;2.55;;;1.20;;
78648;SDS011;67962;47.310;9.642;2024-01-25T14:04:59;4.07;;;1.50;;
78648;SDS011;67962;47.310;9.642;2024-01-25T14:07:25;2.22;;;1.17;;
78648;SDS011;67962;47.310;9.642;2024-01-25T14:09:51;2.95;;;1.80;;
78648;SDS011;67962;47.310;9.642;2024-01-25T14:12:20;2.45;;;1.63;;
78648;SDS011;67962;47.310;9.642;2024-01-25T14:14:46;2.08;;;1.45;;
78648;SDS011;67962;47.310;9.642;2024-01-25T14:17:11;3.17;;;1.40;;
78648;SDS011;67962;47.310;9.642;2024-01-25T14:19:37;1.73;;;1.23;;
78648;SDS011;67962;47.310;9.642;2024-01-25T14:22:03;1.80;;;1.30;;
78648;SDS011;67962;47.310;9.642;2024-01-25T14:24:28;4.35;;;1.63;;
78648;SDS011;67962;47.310;9.642;2024-01-25T14:26:54;4.90;;;2.13;;
78648;SDS011;67962;47.310;9.642;2024-01-25T14:29:20;3.33;;;1.65;;
78648;SDS011;67962;47.310;9.642;2024-01-25T14:31:45;2.22;;;1.70;;
78648;SDS011;67962;47.310;9.642;2024-01-25T14:34:11;1.85;;;1.05;;
78648;SDS011;67962;47.310;9.642;2024-01-25T14:36:37;4.50;;;1.77;;
78648;SDS011;67962;47.310;9.642;2024-01-25T14:39:02;3.03;;;1.20;;
78648;SDS011;67962;47.310;9.642;2024-01-25T14:41:29;4.30;;;1.33;;
78648;SDS011;67962;47.310;9.642;2024-01-25T14:43:55;1.95;;;1.10;;
78648;SDS011;67962;47.310;9.642;2024-01-25T14:46:21;1.77;;;1.30;;